sensor_id;sensor_type;location;lat;lon;timestamp;temperature;humidity
35313;DHT22;21425;50.454;30.466;2023-03-17T00:01:40;1.50;99.90
35313;DHT22;21425;50.454;30.466;2023-03-17T00:04:09;1.40;99.90
35313;DHT22;21425;50.454;30.466;2023-03-17T00:09:01;1.10;99.90
35313;DHT22;21425;50.454;30.466;2023-03-17T00:11:26;1.10;99.90
35313;DHT22;21425;50.454;30.466;2023-03-17T00:13:52;1.50;99.90
35313;DHT22;21425;50.454;30.466;2023-03-17T00:16:19;1.50;99.90
35313;DHT22;21425;50.454;30.466;2023-03-17T00:18:46;1.20;99.90
35313;DHT22;21425;50.454;30.466;2023-03-17T00:21:13;0.60;99.90
35313;DHT22;21425;50.454;30.466;2023-03-17T00:23:39;1.40;99.90
35313;DHT22;21425;50.454;30.466;2023-03-17T00:26:05;1.50;99.90
35313;DHT22;21425;50.454;30.466;2023-03-17T00:28:31;0.70;99.90
35313;DHT22;21425;50.454;30.466;2023-03-17T00:30:59;1.20;99.90
35313;DHT22;21425;50.454;30.466;2023-03-17T00:33:26;1.50;99.90
35313;DHT22;21425;50.454;30.466;2023-03-17T00:35:52;1.30;99.90
35313;DHT22;21425;50.454;30.466;2023-03-17T00:38:18;1.10;99.90
35313;DHT22;21425;50.454;30.466;2023-03-17T00:40:44;1.10;99.90
35313;DHT22;21425;50.454;30.466;2023-03-17T00:43:10;1.50;99.90
35313;DHT22;21425;50.454;30.466;2023-03-17T00:48:04;1.10;99.90
35313;DHT22;21425;50.454;30.466;2023-03-17T00:50:34;1.50;99.90
35313;DHT22;21425;50.454;30.466;2023-03-17T00:52:59;1.60;99.90
35313;DHT22;21425;50.454;30.466;2023-03-17T00:55:25;1.20;99.90
35313;DHT22;21425;50.454;30.466;2023-03-17T00:57:51;1.20;99.90
35313;DHT22;21425;50.454;30.466;2023-03-17T01:02:45;0.70;99.90
35313;DHT22;21425;50.454;30.466;2023-03-17T01:05:11;1.10;99.90
35313;DHT22;21425;50.454;30.466;2023-03-17T01:07:37;1.60;99.90
35313;DHT22;21425;50.454;30.466;2023-03-17T01:10:09;1.70;99.90
35313;DHT22;21425;50.454;30.466;2023-03-17T01:12:35;0.70;99.90
35313;DHT22;21425;50.454;30.466;2023-03-17T01:15:01;1.00;99.90
35313;DHT22;21425;50.454;30.466;2023-03-17T01:17:26;1.60;99.90
35313;DHT22;21425;50.454;30.466;2023-03-17T01:19:53;0.70;99.90
35313;DHT22;21425;50.454;30.466;2023-03-17T01:22:18;1.60;99.90
35313;DHT22;21425;50.454;30.466;2023-03-17T01:24:44;1.70;99.90
35313;DHT22;21425;50.454;30.466;2023-03-17T01:27:12;1.70;99.90
35313;DHT22;21425;50.454;30.466;2023-03-17T01:29:37;1.70;99.90
35313;DHT22;21425;50.454;30.466;2023-03-17T01:32:03;1.50;99.90
35313;DHT22;21425;50.454;30.466;2023-03-17T01:34:28;1.40;99.90
35313;DHT22;21425;50.454;30.466;2023-03-17T01:36:54;0.90;99.90
35313;DHT22;21425;50.454;30.466;2023-03-17T01:39:19;0.90;99.90
35313;DHT22;21425;50.454;30.466;2023-03-17T01:41:45;1.70;99.90
35313;DHT22;21425;50.454;30.466;2023-03-17T01:44:13;0.60;99.90
35313;DHT22;21425;50.454;30.466;2023-03-17T01:46:39;1.10;99.90
35313;DHT22;21425;50.454;30.466;2023-03-17T01:51:42;1.40;99.90
35313;DHT22;21425;50.454;30.466;2023-03-17T01:54:11;1.80;99.90
35313;DHT22;21425;50.454;30.466;2023-03-17T01:56:39;1.40;99.90
35313;DHT22;21425;50.454;30.466;2023-03-17T01:59:06;1.50;99.90
35313;DHT22;21425;50.454;30.466;2023-03-17T02:01:33;1.00;99.90
35313;DHT22;21425;50.454;30.466;2023-03-17T02:04:01;1.20;99.90
35313;DHT22;21425;50.454;30.466;2023-03-17T02:06:27;1.60;99.90
35313;DHT22;21425;50.454;30.466;2023-03-17T02:08:53;0.60;99.90
35313;DHT22;21425;50.454;30.466;2023-03-17T02:13:46;1.80;99.90
35313;DHT22;21425;50.454;30.466;2023-03-17T02:16:13;0.80;99.90
35313;DHT22;21425;50.454;30.466;2023-03-17T02:18:40;1.30;99.90
35313;DHT22;21425;50.454;30.466;2023-03-17T02:23:34;1.80;99.90
35313;DHT22;21425;50.454;30.466;2023-03-17T02:26:00;1.50;99.90
35313;DHT22;21425;50.454;30.466;2023-03-17T02:28:28;1.20;99.90
35313;DHT22;21425;50.454;30.466;2023-03-17T02:30:55;1.20;99.90
35313;DHT22;21425;50.454;30.466;2023-03-17T02:33:21;1.00;99.90
35313;DHT22;21425;50.454;30.466;2023-03-17T02:35:46;1.80;99.90
35313;DHT22;21425;50.454;30.466;2023-03-17T02:38:12;1.50;99.90
35313;DHT22;21425;50.454;30.466;2023-03-17T02:40:37;1.20;99.90
35313;DHT22;21425;50.454;30.466;2023-03-17T02:43:03;1.50;99.90
35313;DHT22;21425;50.454;30.466;2023-03-17T02:45:29;1.70;99.90
35313;DHT22;21425;50.454;30.466;2023-03-17T02:47:55;1.70;99.90
35313;DHT22;21425;50.454;30.466;2023-03-17T02:50:23;1.70;99.90
35313;DHT22;21425;50.454;30.466;2023-03-17T02:52:49;1.50;99.90
35313;DHT22;21425;50.454;30.466;2023-03-17T02:55:15;0.60;99.90
35313;DHT22;21425;50.454;30.466;2023-03-17T02:57:41;1.50;99.90
35313;DHT22;21425;50.454;30.466;2023-03-17T03:00:07;1.00;99.90
35313;DHT22;21425;50.454;30.466;2023-03-17T03:02:35;1.30;99.90
35313;DHT22;21425;50.454;30.466;2023-03-17T03:05:01;0.50;99.90
35313;DHT22;21425;50.454;30.466;2023-03-17T03:07:27;0.50;99.90
35313;DHT22;21425;50.454;30.466;2023-03-17T03:09:52;1.80;99.90
35313;DHT22;21425;50.454;30.466;2023-03-17T03:12:18;0.90;99.90
35313;DHT22;21425;50.454;30.466;2023-03-17T03:14:43;1.80;99.90
35313;DHT22;21425;50.454;30.466;2023-03-17T03:17:09;1.50;99.90
35313;DHT22;21425;50.454;30.466;2023-03-17T03:19:34;1.70;99.90
35313;DHT22;21425;50.454;30.466;2023-03-17T03:22:00;0.50;99.90
35313;DHT22;21425;50.454;30.466;2023-03-17T03:24:25;1.70;99.90
35313;DHT22;21425;50.454;30.466;2023-03-17T03:26:52;1.80;99.90
35313;DHT22;21425;50.454;30.466;2023-03-17T03:29:17;1.40;99.90
35313;DHT22;21425;50.454;30.466;2023-03-17T03:31:43;0.60;99.90
35313;DHT22;21425;50.454;30.466;2023-03-17T03:34:09;0.80;99.90
35313;DHT22;21425;50.454;30.466;2023-03-17T03:36:34;1.80;99.90
35313;DHT22;21425;50.454;30.466;2023-03-17T03:38:59;0.70;99.90
35313;DHT22;21425;50.454;30.466;2023-03-17T03:41:26;1.40;99.90
35313;DHT22;21425;50.454;30.466;2023-03-17T03:43:51;1.50;99.90
35313;DHT22;21425;50.454;30.466;2023-03-17T03:46:17;0.80;99.90
35313;DHT22;21425;50.454;30.466;2023-03-17T03:48:42;1.70;99.90
35313;DHT22;21425;50.454;30.466;2023-03-17T03:51:08;1.50;99.90
35313;DHT22;21425;50.454;30.466;2023-03-17T03:53:33;0.50;99.90
35313;DHT22;21425;50.454;30.466;2023-03-17T03:55:59;1.80;99.90
35313;DHT22;21425;50.454;30.466;2023-03-17T03:58:25;1.60;99.90
35313;DHT22;21425;50.454;30.466;2023-03-17T04:00:50;1.40;99.90
35313;DHT22;21425;50.454;30.466;2023-03-17T04:03:16;0.60;99.90
35313;DHT22;21425;50.454;30.466;2023-03-17T04:05:42;1.80;99.90
35313;DHT22;21425;50.454;30.466;2023-03-17T04:08:07;1.50;99.90
35313;DHT22;21425;50.454;30.466;2023-03-17T04:10:33;1.20;99.90
35313;DHT22;21425;50.454;30.466;2023-03-17T04:12:58;1.80;99.90
35313;DHT22;21425;50.454;30.466;2023-03-17T04:15:24;0.70;99.90
35313;DHT22;21425;50.454;30.466;2023-03-17T04:17:50;0.60;99.90
35313;DHT22;21425;50.454;30.466;2023-03-17T04:20:16;1.40;99.90
35313;DHT22;21425;50.454;30.466;2023-03-17T04:22:42;1.90;99.90
35313;DHT22;21425;50.454;30.466;2023-03-17T04:25:08;1.40;99.90
35313;DHT22;21425;50.454;30.466;2023-03-17T04:27:34;0.50;99.90
35313;DHT22;21425;50.454;30.466;2023-03-17T04:30:00;1.40;99.90
35313;DHT22;21425;50.454;30.466;2023-03-17T04:32:26;0.50;99.90
35313;DHT22;21425;50.454;30.466;2023-03-17T04:34:51;1.50;99.90
35313;DHT22;21425;50.454;30.466;2023-03-17T04:37:17;0.70;99.90
35313;DHT22;21425;50.454;30.466;2023-03-17T04:39:42;0.70;99.90
35313;DHT22;21425;50.454;30.466;2023-03-17T04:42:08;0.50;99.90
35313;DHT22;21425;50.454;30.466;2023-03-17T04:44:33;0.90;99.90
35313;DHT22;21425;50.454;30.466;2023-03-17T04:46:59;1.70;99.90
35313;DHT22;21425;50.454;30.466;2023-03-17T04:49:24;1.40;99.90
35313;DHT22;21425;50.454;30.466;2023-03-17T04:56:42;1.70;99.90
35313;DHT22;21425;50.454;30.466;2023-03-17T04:59:08;1.80;99.90
35313;DHT22;21425;50.454;30.466;2023-03-17T05:01:33;0.60;99.90
35313;DHT22;21425;50.454;30.466;2023-03-17T05:03:59;1.70;99.90
35313;DHT22;21425;50.454;30.466;2023-03-17T05:06:24;0.90;99.90
35313;DHT22;21425;50.454;30.466;2023-03-17T05:08:50;1.70;99.90
35313;DHT22;21425;50.454;30.466;2023-03-17T05:11:16;1.50;99.90
35313;DHT22;21425;50.454;30.466;2023-03-17T05:13:42;1.50;99.90
35313;DHT22;21425;50.454;30.466;2023-03-17T05:16:08;1.10;99.90
35313;DHT22;21425;50.454;30.466;2023-03-17T05:18:33;1.40;99.90
35313;DHT22;21425;50.454;30.466;2023-03-17T05:20:59;0.90;99.90
35313;DHT22;21425;50.454;30.466;2023-03-17T05:23:25;1.20;99.90
35313;DHT22;21425;50.454;30.466;2023-03-17T05:28:17;1.30;99.90
35313;DHT22;21425;50.454;30.466;2023-03-17T05:30:43;1.30;99.90
35313;DHT22;21425;50.454;30.466;2023-03-17T05:33:10;1.60;99.90
35313;DHT22;21425;50.454;30.466;2023-03-17T05:35:36;1.40;99.90
35313;DHT22;21425;50.454;30.466;2023-03-17T05:38:01;1.90;99.90
35313;DHT22;21425;50.454;30.466;2023-03-17T05:40:27;1.70;99.90
35313;DHT22;21425;50.454;30.466;2023-03-17T05:42:52;1.10;99.90
35313;DHT22;21425;50.454;30.466;2023-03-17T05:45:18;1.20;99.90
35313;DHT22;21425;50.454;30.466;2023-03-17T05:47:43;1.20;99.90
35313;DHT22;21425;50.454;30.466;2023-03-17T05:52:35;0.90;99.90
35313;DHT22;21425;50.454;30.466;2023-03-17T05:55:02;1.60;99.90
35313;DHT22;21425;50.454;30.466;2023-03-17T05:57:28;1.60;99.90
35313;DHT22;21425;50.454;30.466;2023-03-17T05:59:53;1.40;99.90
35313;DHT22;21425;50.454;30.466;2023-03-17T06:02:19;1.60;99.90
35313;DHT22;21425;50.454;30.466;2023-03-17T06:04:45;1.60;99.90
35313;DHT22;21425;50.454;30.466;2023-03-17T06:07:11;1.00;99.90
35313;DHT22;21425;50.454;30.466;2023-03-17T06:09:37;1.30;99.90
35313;DHT22;21425;50.454;30.466;2023-03-17T06:12:03;1.50;99.90
35313;DHT22;21425;50.454;30.466;2023-03-17T06:14:28;1.00;99.90
35313;DHT22;21425;50.454;30.466;2023-03-17T06:16:54;0.80;99.90
35313;DHT22;21425;50.454;30.466;2023-03-17T06:19:19;1.30;99.90
35313;DHT22;21425;50.454;30.466;2023-03-17T06:21:45;1.80;99.90
35313;DHT22;21425;50.454;30.466;2023-03-17T06:24:11;1.20;99.90
35313;DHT22;21425;50.454;30.466;2023-03-17T06:26:37;1.70;99.90
35313;DHT22;21425;50.454;30.466;2023-03-17T06:29:04;1.60;99.90
35313;DHT22;21425;50.454;30.466;2023-03-17T06:31:33;1.50;99.90
35313;DHT22;21425;50.454;30.466;2023-03-17T06:33:58;1.40;99.90
35313;DHT22;21425;50.454;30.466;2023-03-17T06:36:24;1.50;99.90
35313;DHT22;21425;50.454;30.466;2023-03-17T06:38:50;1.10;99.90
35313;DHT22;21425;50.454;30.466;2023-03-17T06:41:15;1.40;99.90
35313;DHT22;21425;50.454;30.466;2023-03-17T06:46:07;1.60;99.90
35313;DHT22;21425;50.454;30.466;2023-03-17T06:48:33;1.60;99.90
35313;DHT22;21425;50.454;30.466;2023-03-17T06:50:59;1.70;99.90
35313;DHT22;21425;50.454;30.466;2023-03-17T06:55:50;1.40;99.90
35313;DHT22;21425;50.454;30.466;2023-03-17T06:58:16;1.50;99.90
35313;DHT22;21425;50.454;30.466;2023-03-17T07:00:42;1.60;99.90
35313;DHT22;21425;50.454;30.466;2023-03-17T07:03:09;1.50;99.90
35313;DHT22;21425;50.454;30.466;2023-03-17T07:08:03;1.40;99.90
35313;DHT22;21425;50.454;30.466;2023-03-17T07:10:29;1.60;99.90
35313;DHT22;21425;50.454;30.466;2023-03-17T07:12:54;1.50;99.90
35313;DHT22;21425;50.454;30.466;2023-03-17T07:15:20;1.60;99.90
35313;DHT22;21425;50.454;30.466;2023-03-17T07:17:46;1.60;99.90
35313;DHT22;21425;50.454;30.466;2023-03-17T07:20:12;1.60;99.90
35313;DHT22;21425;50.454;30.466;2023-03-17T07:25:04;1.50;99.90
35313;DHT22;21425;50.454;30.466;2023-03-17T07:27:30;1.70;99.90
35313;DHT22;21425;50.454;30.466;2023-03-17T07:29:56;1.50;99.90
35313;DHT22;21425;50.454;30.466;2023-03-17T07:32:21;1.40;99.90
35313;DHT22;21425;50.454;30.466;2023-03-17T07:34:47;1.60;99.90
35313;DHT22;21425;50.454;30.466;2023-03-17T07:37:12;1.70;99.90
35313;DHT22;21425;50.454;30.466;2023-03-17T07:42:04;1.70;99.90
35313;DHT22;21425;50.454;30.466;2023-03-17T07:44:30;1.50;99.90
35313;DHT22;21425;50.454;30.466;2023-03-17T07:46:56;1.40;99.90
35313;DHT22;21425;50.454;30.466;2023-03-17T07:49:22;1.70;99.90
35313;DHT22;21425;50.454;30.466;2023-03-17T07:51:47;1.50;99.90
35313;DHT22;21425;50.454;30.466;2023-03-17T07:54:13;1.60;99.90
35313;DHT22;21425;50.454;30.466;2023-03-17T07:56:40;2.20;99.90
35313;DHT22;21425;50.454;30.466;2023-03-17T07:59:06;1.80;99.90
35313;DHT22;21425;50.454;30.466;2023-03-17T08:01:35;1.50;99.90
35313;DHT22;21425;50.454;30.466;2023-03-17T08:04:01;1.80;99.90
35313;DHT22;21425;50.454;30.466;2023-03-17T08:06:27;1.80;99.90
35313;DHT22;21425;50.454;30.466;2023-03-17T08:08:53;2.10;99.90
35313;DHT22;21425;50.454;30.466;2023-03-17T08:11:19;1.60;99.90
35313;DHT22;21425;50.454;30.466;2023-03-17T08:13:45;1.40;99.90
35313;DHT22;21425;50.454;30.466;2023-03-17T08:16:10;1.30;99.90
35313;DHT22;21425;50.454;30.466;2023-03-17T08:18:36;2.20;99.90
35313;DHT22;21425;50.454;30.466;2023-03-17T08:21:01;2.30;99.90
35313;DHT22;21425;50.454;30.466;2023-03-17T08:23:27;2.10;99.90
35313;DHT22;21425;50.454;30.466;2023-03-17T08:25:56;1.50;99.90
35313;DHT22;21425;50.454;30.466;2023-03-17T08:28:22;1.60;99.90
35313;DHT22;21425;50.454;30.466;2023-03-17T08:30:48;1.70;99.90
35313;DHT22;21425;50.454;30.466;2023-03-17T08:33:14;1.70;99.90
35313;DHT22;21425;50.454;30.466;2023-03-17T08:35:40;1.80;99.90
35313;DHT22;21425;50.454;30.466;2023-03-17T08:38:07;1.80;99.90
35313;DHT22;21425;50.454;30.466;2023-03-17T08:40:33;1.60;99.90
35313;DHT22;21425;50.454;30.466;2023-03-17T08:42:59;1.50;99.90
35313;DHT22;21425;50.454;30.466;2023-03-17T08:45:24;1.90;99.90
35313;DHT22;21425;50.454;30.466;2023-03-17T08:47:50;2.20;99.90
35313;DHT22;21425;50.454;30.466;2023-03-17T08:50:18;1.50;99.90
35313;DHT22;21425;50.454;30.466;2023-03-17T08:52:44;1.70;99.90
35313;DHT22;21425;50.454;30.466;2023-03-17T08:55:11;1.60;99.90
35313;DHT22;21425;50.454;30.466;2023-03-17T08:57:36;1.70;99.90
35313;DHT22;21425;50.454;30.466;2023-03-17T09:00:02;2.50;99.90
35313;DHT22;21425;50.454;30.466;2023-03-17T09:02:38;1.70;99.90
35313;DHT22;21425;50.454;30.466;2023-03-17T09:05:05;1.90;99.90
35313;DHT22;21425;50.454;30.466;2023-03-17T09:07:31;1.90;99.90
35313;DHT22;21425;50.454;30.466;2023-03-17T09:09:58;1.30;99.90
35313;DHT22;21425;50.454;30.466;2023-03-17T09:12:23;2.50;99.90
35313;DHT22;21425;50.454;30.466;2023-03-17T09:14:49;1.50;99.90
35313;DHT22;21425;50.454;30.466;2023-03-17T09:17:15;1.90;99.90
35313;DHT22;21425;50.454;30.466;2023-03-17T09:19:41;1.80;99.90
35313;DHT22;21425;50.454;30.466;2023-03-17T09:22:11;1.70;99.90
35313;DHT22;21425;50.454;30.466;2023-03-17T09:24:37;2.40;99.90
35313;DHT22;21425;50.454;30.466;2023-03-17T09:29:28;1.50;99.90
35313;DHT22;21425;50.454;30.466;2023-03-17T09:31:55;1.40;99.90
35313;DHT22;21425;50.454;30.466;2023-03-17T09:34:21;2.10;99.90
35313;DHT22;21425;50.454;30.466;2023-03-17T09:36:47;1.30;99.90
35313;DHT22;21425;50.454;30.466;2023-03-17T09:39:13;1.90;99.90
35313;DHT22;21425;50.454;30.466;2023-03-17T09:44:11;1.80;99.90
35313;DHT22;21425;50.454;30.466;2023-03-17T09:49:18;1.80;99.90
35313;DHT22;21425;50.454;30.466;2023-03-17T09:51:45;1.60;99.90
35313;DHT22;21425;50.454;30.466;2023-03-17T09:54:12;1.80;99.90
35313;DHT22;21425;50.454;30.466;2023-03-17T09:56:41;2.40;99.90
35313;DHT22;21425;50.454;30.466;2023-03-17T10:01:42;1.50;99.90
35313;DHT22;21425;50.454;30.466;2023-03-17T10:04:08;2.00;99.90
35313;DHT22;21425;50.454;30.466;2023-03-17T10:06:35;2.40;99.90
35313;DHT22;21425;50.454;30.466;2023-03-17T10:09:10;1.30;99.90
35313;DHT22;21425;50.454;30.466;2023-03-17T10:11:39;2.00;99.90
35313;DHT22;21425;50.454;30.466;2023-03-17T10:16:50;1.90;99.90
35313;DHT22;21425;50.454;30.466;2023-03-17T10:21:52;1.50;99.90
35313;DHT22;21425;50.454;30.466;2023-03-17T10:24:20;2.00;99.90
35313;DHT22;21425;50.454;30.466;2023-03-17T10:26:47;2.00;99.90
35313;DHT22;21425;50.454;30.466;2023-03-17T10:29:17;2.70;99.90
35313;DHT22;21425;50.454;30.466;2023-03-17T10:34:13;2.10;99.90
35313;DHT22;21425;50.454;30.466;2023-03-17T10:36:40;1.60;99.90
35313;DHT22;21425;50.454;30.466;2023-03-17T10:39:08;2.10;99.90
35313;DHT22;21425;50.454;30.466;2023-03-17T10:41:37;1.30;99.90
35313;DHT22;21425;50.454;30.466;2023-03-17T10:44:07;2.80;99.90
35313;DHT22;21425;50.454;30.466;2023-03-17T10:49:06;1.80;99.90
35313;DHT22;21425;50.454;30.466;2023-03-17T10:51:34;1.60;99.90
35313;DHT22;21425;50.454;30.466;2023-03-17T10:54:04;2.20;99.90
35313;DHT22;21425;50.454;30.466;2023-03-17T10:56:34;2.40;99.90
35313;DHT22;21425;50.454;30.466;2023-03-17T11:01:27;1.90;99.90
35313;DHT22;21425;50.454;30.466;2023-03-17T11:03:53;2.70;99.90
35313;DHT22;21425;50.454;30.466;2023-03-17T11:06:20;1.30;99.90
35313;DHT22;21425;50.454;30.466;2023-03-17T11:08:51;2.90;99.90
35313;DHT22;21425;50.454;30.466;2023-03-17T11:13:46;2.40;99.90
35313;DHT22;21425;50.454;30.466;2023-03-17T11:18:39;2.40;99.90
35313;DHT22;21425;50.454;30.466;2023-03-17T11:32:11;1.80;99.90
35313;DHT22;21425;50.454;30.466;2023-03-17T11:34:07;2.70;99.90
35313;DHT22;21425;50.454;30.466;2023-03-17T11:38:59;1.90;99.90
35313;DHT22;21425;50.454;30.466;2023-03-17T11:46:41;3.00;99.90
35313;DHT22;21425;50.454;30.466;2023-03-17T11:49:18;2.00;99.90
35313;DHT22;21425;50.454;30.466;2023-03-17T11:54:20;2.00;99.90
35313;DHT22;21425;50.454;30.466;2023-03-17T11:56:50;1.60;99.90
35313;DHT22;21425;50.454;30.466;2023-03-17T11:59:18;2.70;99.90
35313;DHT22;21425;50.454;30.466;2023-03-17T12:01:56;2.80;99.90
35313;DHT22;21425;50.454;30.466;2023-03-17T12:04:28;2.90;99.90
35313;DHT22;21425;50.454;30.466;2023-03-17T12:06:59;2.80;99.90
35313;DHT22;21425;50.454;30.466;2023-03-17T12:09:29;2.70;99.90
35313;DHT22;21425;50.454;30.466;2023-03-17T12:11:55;2.60;99.90
35313;DHT22;21425;50.454;30.466;2023-03-17T12:14:24;1.50;99.90
35313;DHT22;21425;50.454;30.466;2023-03-17T12:16:53;1.90;99.90
35313;DHT22;21425;50.454;30.466;2023-03-17T12:19:22;1.70;99.90
35313;DHT22;21425;50.454;30.466;2023-03-17T12:32:02;2.70;99.90
35313;DHT22;21425;50.454;30.466;2023-03-17T12:36:55;1.70;99.90
35313;DHT22;21425;50.454;30.466;2023-03-17T12:39:29;2.70;99.90
35313;DHT22;21425;50.454;30.466;2023-03-17T12:44:45;2.70;99.90
35313;DHT22;21425;50.454;30.466;2023-03-17T12:49:55;3.00;99.90
35313;DHT22;21425;50.454;30.466;2023-03-17T12:55:08;2.30;99.90
35313;DHT22;21425;50.454;30.466;2023-03-17T12:57:46;2.40;99.90
35313;DHT22;21425;50.454;30.466;2023-03-17T13:00:46;2.60;99.90
35313;DHT22;21425;50.454;30.466;2023-03-17T13:05:38;2.50;99.90
35313;DHT22;21425;50.454;30.466;2023-03-17T13:08:09;2.80;99.90
35313;DHT22;21425;50.454;30.466;2023-03-17T13:10:42;2.50;99.90
35313;DHT22;21425;50.454;30.466;2023-03-17T13:15:53;2.60;99.90
35313;DHT22;21425;50.454;30.466;2023-03-17T13:20:51;2.70;99.90
35313;DHT22;21425;50.454;30.466;2023-03-17T13:25:58;2.80;99.90
35313;DHT22;21425;50.454;30.466;2023-03-17T13:28:26;2.10;99.90
35313;DHT22;21425;50.454;30.466;2023-03-17T13:30:58;2.80;99.90
35313;DHT22;21425;50.454;30.466;2023-03-17T13:33:31;2.50;99.90
35313;DHT22;21425;50.454;30.466;2023-03-17T13:43:55;2.50;99.90
35313;DHT22;21425;50.454;30.466;2023-03-17T13:46:26;2.80;99.90
35313;DHT22;21425;50.454;30.466;2023-03-17T13:48:53;2.80;99.90
35313;DHT22;21425;50.454;30.466;2023-03-17T13:51:20;1.90;99.90
35313;DHT22;21425;50.454;30.466;2023-03-17T13:53:49;2.30;99.90
35313;DHT22;21425;50.454;30.466;2023-03-17T14:01:29;2.00;99.90
35313;DHT22;21425;50.454;30.466;2023-03-17T14:03:56;2.90;99.90
35313;DHT22;21425;50.454;30.466;2023-03-17T14:06:23;2.60;99.90
35313;DHT22;21425;50.454;30.466;2023-03-17T14:08:53;3.00;99.90
35313;DHT22;21425;50.454;30.466;2023-03-17T14:16:45;2.30;99.90
35313;DHT22;21425;50.454;30.466;2023-03-17T14:19:22;2.30;99.90
35313;DHT22;21425;50.454;30.466;2023-03-17T14:21:48;2.70;99.90
35313;DHT22;21425;50.454;30.466;2023-03-17T14:24:28;2.20;99.90
35313;DHT22;21425;50.454;30.466;2023-03-17T14:26:53;2.70;99.90
35313;DHT22;21425;50.454;30.466;2023-03-17T14:29:20;2.30;99.90
35313;DHT22;21425;50.454;30.466;2023-03-17T14:31:47;2.70;99.90
35313;DHT22;21425;50.454;30.466;2023-03-17T14:36:40;2.80;99.90
35313;DHT22;21425;50.454;30.466;2023-03-17T14:39:06;2.30;99.90
35313;DHT22;21425;50.454;30.466;2023-03-17T14:41:32;2.20;99.90
35313;DHT22;21425;50.454;30.466;2023-03-17T14:43:59;1.90;99.90
35313;DHT22;21425;50.454;30.466;2023-03-17T14:48:58;3.10;99.90
35313;DHT22;21425;50.454;30.466;2023-03-17T14:51:28;2.90;99.90
35313;DHT22;21425;50.454;30.466;2023-03-17T14:53:58;3.00;99.90
35313;DHT22;21425;50.454;30.466;2023-03-17T14:56:28;2.30;99.90
35313;DHT22;21425;50.454;30.466;2023-03-17T14:58:55;2.40;99.90
35313;DHT22;21425;50.454;30.466;2023-03-17T15:01:40;2.30;99.90
35313;DHT22;21425;50.454;30.466;2023-03-17T15:04:09;3.00;99.90
35313;DHT22;21425;50.454;30.466;2023-03-17T15:06:44;2.00;99.90
35313;DHT22;21425;50.454;30.466;2023-03-17T15:09:56;2.10;99.90
35313;DHT22;21425;50.454;30.466;2023-03-17T15:16:56;2.10;99.90
35313;DHT22;21425;50.454;30.466;2023-03-17T15:19:26;2.70;99.90
35313;DHT22;21425;50.454;30.466;2023-03-17T15:21:53;2.70;99.90
35313;DHT22;21425;50.454;30.466;2023-03-17T15:24:22;2.80;99.90
35313;DHT22;21425;50.454;30.466;2023-03-17T15:26:49;2.40;99.90
35313;DHT22;21425;50.454;30.466;2023-03-17T15:29:15;2.10;99.90
35313;DHT22;21425;50.454;30.466;2023-03-17T15:31:41;2.90;99.90
35313;DHT22;21425;50.454;30.466;2023-03-17T15:34:08;2.50;99.90
35313;DHT22;21425;50.454;30.466;2023-03-17T15:36:34;2.10;99.90
35313;DHT22;21425;50.454;30.466;2023-03-17T15:39:01;1.80;99.90
35313;DHT22;21425;50.454;30.466;2023-03-17T15:41:27;2.90;99.90
35313;DHT22;21425;50.454;30.466;2023-03-17T15:43:53;2.40;99.90
35313;DHT22;21425;50.454;30.466;2023-03-17T15:46:20;2.00;99.90
35313;DHT22;21425;50.454;30.466;2023-03-17T15:48:46;3.00;99.90
35313;DHT22;21425;50.454;30.466;2023-03-17T15:51:12;3.00;99.90
35313;DHT22;21425;50.454;30.466;2023-03-17T15:53:37;2.80;99.90
35313;DHT22;21425;50.454;30.466;2023-03-17T15:56:03;2.30;99.90
35313;DHT22;21425;50.454;30.466;2023-03-17T15:58:28;2.70;99.90
35313;DHT22;21425;50.454;30.466;2023-03-17T16:00:57;3.20;99.90
35313;DHT22;21425;50.454;30.466;2023-03-17T16:03:31;2.50;99.90
35313;DHT22;21425;50.454;30.466;2023-03-17T16:05:57;2.50;99.90
35313;DHT22;21425;50.454;30.466;2023-03-17T16:08:23;3.30;99.90
35313;DHT22;21425;50.454;30.466;2023-03-17T16:10:49;2.70;99.90
35313;DHT22;21425;50.454;30.466;2023-03-17T16:13:16;3.10;99.90
35313;DHT22;21425;50.454;30.466;2023-03-17T16:15:42;3.00;99.90
35313;DHT22;21425;50.454;30.466;2023-03-17T16:18:12;3.20;99.90
35313;DHT22;21425;50.454;30.466;2023-03-17T16:20:39;2.40;99.90
35313;DHT22;21425;50.454;30.466;2023-03-17T16:23:06;2.30;99.90
35313;DHT22;21425;50.454;30.466;2023-03-17T16:25:32;3.10;99.90
35313;DHT22;21425;50.454;30.466;2023-03-17T16:27:59;3.00;99.90
35313;DHT22;21425;50.454;30.466;2023-03-17T16:30:28;3.40;99.90
35313;DHT22;21425;50.454;30.466;2023-03-17T16:33:01;2.60;99.90
35313;DHT22;21425;50.454;30.466;2023-03-17T16:35:27;2.60;99.90
35313;DHT22;21425;50.454;30.466;2023-03-17T16:40:24;2.90;99.90
35313;DHT22;21425;50.454;30.466;2023-03-17T16:42:50;2.40;99.90
35313;DHT22;21425;50.454;30.466;2023-03-17T16:45:20;2.30;99.90
35313;DHT22;21425;50.454;30.466;2023-03-17T16:47:47;2.70;99.90
35313;DHT22;21425;50.454;30.466;2023-03-17T16:50:16;2.70;99.90
35313;DHT22;21425;50.454;30.466;2023-03-17T16:52:42;3.10;99.90
35313;DHT22;21425;50.454;30.466;2023-03-17T16:55:07;2.30;99.90
35313;DHT22;21425;50.454;30.466;2023-03-17T16:57:34;2.80;99.90
35313;DHT22;21425;50.454;30.466;2023-03-17T17:00:00;2.90;99.90
35313;DHT22;21425;50.454;30.466;2023-03-17T17:02:26;2.10;99.90
35313;DHT22;21425;50.454;30.466;2023-03-17T17:04:51;3.20;99.90
35313;DHT22;21425;50.454;30.466;2023-03-17T17:07:16;2.80;99.90
35313;DHT22;21425;50.454;30.466;2023-03-17T17:09:42;3.00;99.90
35313;DHT22;21425;50.454;30.466;2023-03-17T17:12:08;2.50;99.90
35313;DHT22;21425;50.454;30.466;2023-03-17T17:14:34;2.60;99.90
35313;DHT22;21425;50.454;30.466;2023-03-17T17:17:00;2.90;99.90
35313;DHT22;21425;50.454;30.466;2023-03-17T17:19:25;3.40;99.90
35313;DHT22;21425;50.454;30.466;2023-03-17T17:21:51;3.20;99.90
35313;DHT22;21425;50.454;30.466;2023-03-17T17:24:16;2.80;99.90
35313;DHT22;21425;50.454;30.466;2023-03-17T17:26:42;2.80;99.90
35313;DHT22;21425;50.454;30.466;2023-03-17T17:29:07;3.30;99.90
35313;DHT22;21425;50.454;30.466;2023-03-17T17:31:33;2.80;99.90
35313;DHT22;21425;50.454;30.466;2023-03-17T17:33:58;2.40;99.90
35313;DHT22;21425;50.454;30.466;2023-03-17T17:36:24;3.00;99.90
35313;DHT22;21425;50.454;30.466;2023-03-17T17:38:49;2.20;99.90
35313;DHT22;21425;50.454;30.466;2023-03-17T17:41:16;2.90;99.90
35313;DHT22;21425;50.454;30.466;2023-03-17T17:43:45;3.40;99.90
35313;DHT22;21425;50.454;30.466;2023-03-17T17:46:12;3.30;99.90
35313;DHT22;21425;50.454;30.466;2023-03-17T17:48:39;2.70;99.90
35313;DHT22;21425;50.454;30.466;2023-03-17T17:51:05;2.60;99.90
35313;DHT22;21425;50.454;30.466;2023-03-17T17:53:30;3.00;99.90
35313;DHT22;21425;50.454;30.466;2023-03-17T17:55:56;3.00;99.90